الصفحة الرئيسية
METAR-TAF:

METAR-TAF

مطار :

Gove Peninsula, أستراليا

دائرة عرض: 12-16-12S, خط طول: 136-49-06E, ارتفاع: 62 متر

مراقبة الطقس الحالي

تاريخ ووقت الإصدار 47 دقيقة قبل الساعة 23:00UTC
ريح 12 عقدة من الجنوب الشرقي
درجة الحرارة
ضغط 1017 hPa
الرؤية 10 كم أو أكثر
غيوم متفرقة على ارتفاع 5100 قدم

METAR: YPGV 032300Z AUTO 13012KT 9999 // SCT051 ///// Q1017

زمن: 09:17 (23:47 UTC)

توقعات

تاريخ ووقت الإصدار 5ساعات و 18 دقيقة قبل الساعة 18:29UTC
التوقعات صالحة من03 الساعة 20 UTC إلى 04 الساعة 08 UTC
ريح 10 عقدة من الجنوب الشرقي
الرؤية 10 كم أو أكثر
غيوم متفرقة على ارتفاع 2500 قدم
من 03 الساعة 2300 UTC
ريح 16 عقدة من الجنوب الشرقي
الرؤية 10 كم أو أكثر
غيوم متفرقة على ارتفاع 3000 قدم
من 04 الساعة 0500 UTC
ريح 14 عقدة من الجنوب الشرقي
الرؤية 10 كم أو أكثر
غيوم متفرقة على ارتفاع 3500 قدم

TAF: YPGV 031829Z 0320/0408 14010KT 9999 SCT025 FM032300 14016KT 9999 SCT030 FM040500 14014KT 9999 SCT035

أرصاد الطقس والتوقعات من أكثر من 4000 مطار (تقارير الطقس للمطار METAR والتنبؤ بالطقس بالمطارTAF).

المحطات المتاحة هي النقط الصفراء والحمراء على الخريطة.

حرك المؤشر فوق النقطة لمعرفة اسم المحطة.

ثم انقر لمعرفة أرصاد وتوقعات الطقس.

لتغيير الخارطة: اضغط على الأزرار الخضراء مع رمز الصليب الأسود للتكبير. على الزر الأخضر مع شرطة للتصغير، أو على الأسهم الخضراء للخرائط المجاورة.


METAR-TAF: